Endeavour — C6BE4 — position and weather

sailwx.info

Track history (hours):
 
Tides and Currents Weather Stations Pressure Air Temp Water Temp Dewpoint Dewpoint Depression Visibility Wind Speed Wind Dir Waves Ship Positions

Endeavour

Operator: Lindblad Expeditions

Last reported at 2019-Nov-23 04:00 UTC. Time now 2019-Dec-12 08:19 UTC.
Position N 01°13' E 103°54'.
Warning: this ship's position is 19 days out of date.

Length 190 m; draft 13 m.

Type: Cargo ship. MMSI: 311000239.

Date/timePositionNaut miles runAvg speedWind from/ knotsBaromVisibWave heightAir tempDewpointWater temp
2019-Nov-23 04:00N 01°13' E 103°54'4 7.5
2019-Nov-23 03:30N 01°15' E 103°57'1 2.5
2019-Nov-23 02:59N 01°17' E 103°58'0 0.0
2019-Nov-23 01:29N 01°17' E 103°58'0 0.0
2019-Nov-23 00:29N 01°17' E 103°58'0 0.0
2019-Nov-22 23:59N 01°17' E 103°58'0 0.0
2019-Nov-22 22:29N 01°17' E 103°58'0 0.1
2019-Nov-22 21:29N 01°17' E 103°58'0 0.0
2019-Nov-22 19:59N 01°17' E 103°58'0 0.0
2019-Nov-22 19:29N 01°17' E 103°58'0 0.1
2019-Nov-22 17:29N 01°17' E 103°58'3 2.0
2019-Nov-22 16:00N 01°16' E 104°01'7 7.0
2019-Nov-22 15:00N 01°17' E 104°08'4 6.9
2019-Nov-22 14:27N 01°17' E 104°11'  
Track history (hours):
 
Tides and Currents Weather Stations Pressure Air Temp Water Temp Dewpoint Dewpoint Depression Visibility Wind Speed Wind Dir Waves Ship Positions

Endeavour

Operator: Lindblad Expeditions

Last reported at 2019-Nov-23 04:00 UTC. Time now 2019-Dec-12 08:19 UTC.
Position N 01°13' E 103°54'.
Warning: this ship's position is 19 days out of date.

Length 190 m; draft 13 m.

Type: Cargo ship. MMSI: 311000239.

Date/timePositionNaut miles runAvg speedWind from/ knotsBaromVisibWave heightAir tempDewpointWater temp
2019-Nov-23 04:00N 01°13' E 103°54'4 7.5
2019-Nov-23 03:30N 01°15' E 103°57'1 2.5
2019-Nov-23 02:59N 01°17' E 103°58'0 0.0
2019-Nov-23 01:29N 01°17' E 103°58'0 0.0
2019-Nov-23 00:29N 01°17' E 103°58'0 0.0
2019-Nov-22 23:59N 01°17' E 103°58'0 0.0
2019-Nov-22 22:29N 01°17' E 103°58'0 0.1
2019-Nov-22 21:29N 01°17' E 103°58'0 0.0
2019-Nov-22 19:59N 01°17' E 103°58'0 0.0
2019-Nov-22 19:29N 01°17' E 103°58'0 0.1
2019-Nov-22 17:29N 01°17' E 103°58'3 2.0
2019-Nov-22 16:00N 01°16' E 104°01'7 7.0
2019-Nov-22 15:00N 01°17' E 104°08'4 6.9
2019-Nov-22 14:27N 01°17' E 104°11'  

Dump ship's entire track history